createdAt,value
2023-02-17T00:01:20.092Z,101612.56
2023-02-17T00:03:48.318Z,101606.25
2023-02-17T00:06:16.666Z,101601.00
2023-02-17T00:08:43.461Z,101597.22
2023-02-17T00:11:10.153Z,101598.25
2023-02-17T00:13:36.879Z,101595.47
2023-02-17T00:16:13.329Z,101582.47
2023-02-17T00:18:39.995Z,101585.13
2023-02-17T00:21:21.396Z,101572.59
2023-02-17T00:23:48.987Z,101570.81
2023-02-17T00:26:16.734Z,101573.53
2023-02-17T00:28:44.620Z,101573.47
2023-02-17T00:31:20.670Z,101568.31
2023-02-17T00:33:50.496Z,101567.38
2023-02-17T00:36:19.661Z,101564.69
2023-02-17T00:38:49.691Z,101563.88
2023-02-17T00:41:17.805Z,101566.31
2023-02-17T00:43:44.832Z,101569.97
2023-02-17T00:46:11.641Z,101567.47
2023-02-17T00:48:38.409Z,101560.28
2023-02-17T00:51:05.256Z,101562.94
2023-02-17T00:53:34.558Z,101554.97
2023-02-17T00:56:01.211Z,101553.25
2023-02-17T00:58:27.971Z,101546.28
2023-02-17T01:00:58.031Z,101540.91
2023-02-17T01:03:26.656Z,101528.69
2023-02-17T01:05:54.709Z,101531.38
2023-02-17T01:08:23.085Z,101523.34
2023-02-17T01:10:54.063Z,101534.25
2023-02-17T01:13:21.118Z,101526.97
2023-02-17T01:15:50.955Z,101521.63
2023-02-17T01:18:19.577Z,101510.31
2023-02-17T01:20:46.584Z,101520.03
2023-02-17T01:23:13.439Z,101504.84
2023-02-17T01:25:41.865Z,101503.13
2023-02-17T01:28:09.828Z,101505.84
2023-02-17T01:30:36.565Z,101494.28
2023-02-17T01:33:03.254Z,101500.44
2023-02-17T01:35:29.937Z,101493.41
2023-02-17T01:37:56.650Z,101491.53
2023-02-17T01:40:23.523Z,101489.81
2023-02-17T01:42:50.227Z,101489.69
2023-02-17T01:45:20.033Z,101479.91
2023-02-17T01:47:50.251Z,101477.50
2023-02-17T01:50:17.434Z,101468.41
2023-02-17T01:52:44.570Z,101467.72
2023-02-17T01:55:14.465Z,101468.47
2023-02-17T01:57:42.144Z,101465.88
2023-02-17T02:00:10.878Z,101464.09
2023-02-17T02:02:42.596Z,101463.34
2023-02-17T02:05:13.284Z,101459.72
2023-02-17T02:07:42.082Z,101455.25
2023-02-17T02:10:13.478Z,101448.97
2023-02-17T02:12:41.645Z,101449.19
2023-02-17T02:15:10.016Z,101439.63
2023-02-17T02:17:53.734Z,101435.78
2023-02-17T02:20:31.757Z,101432.19
2023-02-17T02:23:25.275Z,101426.88
2023-02-17T02:26:39.109Z,101414.63
2023-02-17T02:29:22.569Z,101403.97
2023-02-17T02:32:30.337Z,101399.50
2023-02-17T02:35:03.272Z,101397.16
2023-02-17T02:37:48.338Z,101405.84
2023-02-17T02:40:17.211Z,101390.59
2023-02-17T02:42:44.728Z,101394.19
2023-02-17T02:45:12.003Z,101394.34
2023-02-17T02:47:52.568Z,101388.16
2023-02-17T02:50:39.732Z,101382.94
2023-02-17T02:53:29.976Z,101382.78
2023-02-17T02:56:28.005Z,101378.47
2023-02-17T02:59:11.136Z,101375.78
2023-02-17T03:02:00.139Z,101369.56
2023-02-17T03:04:37.400Z,101364.34
2023-02-17T03:07:11.701Z,101355.31
2023-02-17T03:09:38.482Z,101344.25
2023-02-17T03:12:05.343Z,101344.91
2023-02-17T03:14:36.969Z,101351.16
2023-02-17T03:17:03.678Z,101342.38
2023-02-17T03:19:30.397Z,101340.38
2023-02-17T03:22:00.412Z,101331.59
2023-02-17T03:24:27.131Z,101330.78
2023-02-17T03:26:53.879Z,101324.47
2023-02-17T03:29:20.635Z,101330.63
2023-02-17T03:31:47.435Z,101344.00
2023-02-17T03:34:14.197Z,101338.91
2023-02-17T03:36:40.816Z,101347.84
2023-02-17T03:39:07.622Z,101336.09
2023-02-17T03:41:34.364Z,101342.31
2023-02-17T03:44:01.125Z,101338.19
2023-02-17T03:46:27.812Z,101338.91
2023-02-17T03:48:57.635Z,101334.44
2023-02-17T03:51:25.093Z,101325.47
2023-02-17T03:53:52.189Z,101324.69
2023-02-17T03:56:19.279Z,101332.50
2023-02-17T03:58:46.133Z,101328.94
2023-02-17T04:01:14.054Z,101327.38
2023-02-17T04:03:41.515Z,101323.00
2023-02-17T04:06:09.024Z,101319.38
2023-02-17T04:08:36.194Z,101314.91
2023-02-17T04:11:04.602Z,101316.59
2023-02-17T04:13:32.149Z,101318.41
2023-02-17T04:15:59.284Z,101309.72
2023-02-17T04:18:25.971Z,101313.97
2023-02-17T04:20:54.174Z,101310.84
2023-02-17T04:23:20.869Z,101303.63
2023-02-17T04:25:47.851Z,101311.75
2023-02-17T04:28:15.174Z,101300.91
2023-02-17T04:30:47.937Z,101300.75
2023-02-17T04:33:15.088Z,101299.94
2023-02-17T04:35:41.902Z,101290.06
2023-02-17T04:38:10.457Z,101278.44
2023-02-17T04:40:38.057Z,101287.31
2023-02-17T04:43:04.800Z,101277.44
2023-02-17T04:45:31.705Z,101289.88
2023-02-17T04:47:58.354Z,101287.16
2023-02-17T04:50:25.031Z,101289.13
2023-02-17T04:52:51.654Z,101291.09
2023-02-17T04:55:18.477Z,101280.44
2023-02-17T04:57:45.320Z,101280.25
2023-02-17T05:00:12.633Z,101274.09
2023-02-17T05:02:39.373Z,101271.38
2023-02-17T05:05:06.316Z,101272.16
2023-02-17T05:07:33.060Z,101284.47
2023-02-17T05:09:59.816Z,101267.63
2023-02-17T05:12:26.575Z,101271.31
2023-02-17T05:14:53.231Z,101267.25
2023-02-17T05:17:19.904Z,101260.75
2023-02-17T05:19:46.577Z,101260.69
2023-02-17T05:22:13.286Z,101263.31
2023-02-17T05:24:40.005Z,101252.66
2023-02-17T05:27:06.734Z,101255.31
2023-02-17T05:29:33.468Z,101251.72
2023-02-17T05:32:00.188Z,101246.50
2023-02-17T05:34:26.948Z,101242.06
2023-02-17T05:36:53.745Z,101235.31
2023-02-17T05:39:20.438Z,101228.41
2023-02-17T05:41:47.093Z,101238.88
2023-02-17T05:44:13.771Z,101244.66
2023-02-17T05:46:40.454Z,101237.41
2023-02-17T05:49:07.176Z,101241.88
2023-02-17T05:51:33.861Z,101243.59
2023-02-17T05:54:00.741Z,101238.53
2023-02-17T05:56:27.693Z,101232.16
2023-02-17T05:58:54.671Z,101236.44
2023-02-17T06:01:21.456Z,101240.97
2023-02-17T06:03:48.785Z,101234.75
2023-02-17T06:06:15.725Z,101229.31
2023-02-17T06:08:42.527Z,101230.16
2023-02-17T06:11:09.263Z,101234.66
2023-02-17T06:13:36.092Z,101222.28
2023-02-17T06:16:02.866Z,101215.09
2023-02-17T06:18:29.646Z,101210.59
2023-02-17T06:20:57.267Z,101209.88
2023-02-17T06:23:25.261Z,101204.44
2023-02-17T06:25:52.036Z,101211.81
2023-02-17T06:28:18.851Z,101208.97
2023-02-17T06:30:45.521Z,101208.63
2023-02-17T06:33:12.170Z,101204.25
2023-02-17T06:35:39.340Z,101199.81
2023-02-17T06:38:07.216Z,101198.06
2023-02-17T06:40:33.868Z,101196.31
2023-02-17T06:43:03.625Z,101193.47
2023-02-17T06:45:30.365Z,101189.03
2023-02-17T06:47:57.112Z,101190.72
2023-02-17T06:50:23.872Z,101181.84
2023-02-17T06:52:50.582Z,101187.41
2023-02-17T06:55:17.274Z,101194.50
2023-02-17T06:57:43.934Z,101183.53
2023-02-17T07:00:10.866Z,101187.91
2023-02-17T07:02:38.805Z,101195.69
2023-02-17T07:05:06.909Z,101189.59
2023-02-17T07:07:33.614Z,101186.88
2023-02-17T07:10:00.339Z,101182.13
2023-02-17T07:12:28.967Z,101187.41
2023-02-17T07:14:55.724Z,101182.22
2023-02-17T07:17:22.628Z,101176.13
2023-02-17T07:19:55.345Z,101175.94
2023-02-17T07:22:22.045Z,101186.44
2023-02-17T07:24:48.683Z,101183.75
2023-02-17T07:27:16.025Z,101187.25
2023-02-17T07:29:42.815Z,101173.00
2023-02-17T07:32:09.772Z,101174.75
2023-02-17T07:34:37.825Z,101166.59
2023-02-17T07:37:04.527Z,101166.50
2023-02-17T07:39:31.317Z,101166.41
2023-02-17T07:42:01.084Z,101162.00
2023-02-17T07:44:28.218Z,101155.97
2023-02-17T07:46:55.050Z,101147.34
2023-02-17T07:49:21.748Z,101149.56
2023-02-17T07:51:48.470Z,101144.25
2023-02-17T07:54:15.413Z,101148.69
2023-02-17T07:56:42.103Z,101151.91
2023-02-17T07:59:10.022Z,101146.50
2023-02-17T08:01:36.637Z,101142.88
2023-02-17T08:04:03.421Z,101129.69
2023-02-17T08:06:30.210Z,101136.56
2023-02-17T08:09:15.547Z,101139.06
2023-02-17T08:12:04.118Z,101144.25
2023-02-17T08:14:33.557Z,101148.00
2023-02-17T08:17:01.740Z,101133.53
2023-02-17T08:19:39.482Z,101131.84
2023-02-17T08:22:09.627Z,101137.69
2023-02-17T08:24:36.256Z,101135.31
2023-02-17T08:27:02.928Z,101133.72
2023-02-17T08:29:29.609Z,101138.63
2023-02-17T08:31:56.311Z,101135.22
2023-02-17T08:34:23.062Z,101130.75
2023-02-17T08:36:49.800Z,101125.53
2023-02-17T08:39:18.041Z,101128.03
2023-02-17T08:41:45.861Z,101127.19
2023-02-17T08:44:15.668Z,101132.59
2023-02-17T08:46:43.891Z,101130.03
2023-02-17T08:49:11.171Z,101122.75
2023-02-17T08:51:38.035Z,101129.09
2023-02-17T08:54:06.512Z,101124.66
2023-02-17T08:56:34.008Z,101119.44
2023-02-17T08:59:00.765Z,101109.41
2023-02-17T09:01:27.529Z,101103.22
2023-02-17T09:03:56.435Z,101107.50
2023-02-17T09:06:23.429Z,101091.50
2023-02-17T09:08:50.472Z,101074.59
2023-02-17T09:11:19.180Z,101076.75
2023-02-17T09:13:47.223Z,101074.25
2023-02-17T09:16:14.403Z,101072.78
2023-02-17T09:18:41.071Z,101074.91
2023-02-17T09:21:10.265Z,101059.75
2023-02-17T09:23:37.084Z,101058.63
2023-02-17T09:26:10.134Z,101046.09
2023-02-17T09:28:37.023Z,101035.63
2023-02-17T09:31:12.367Z,101031.06
2023-02-17T09:33:40.845Z,101033.78
2023-02-17T09:36:09.182Z,101039.09
2023-02-17T09:38:38.590Z,101037.50
2023-02-17T09:41:15.788Z,101030.72
2023-02-17T09:43:42.836Z,101018.00
2023-02-17T09:46:32.170Z,101017.75
2023-02-17T09:49:21.522Z,101010.75
2023-02-17T09:51:56.049Z,101012.72
2023-02-17T09:54:35.797Z,101008.81
2023-02-17T09:57:03.981Z,100995.41
2023-02-17T09:59:45.355Z,100991.31
2023-02-17T10:02:29.909Z,100991.50
2023-02-17T10:05:01.683Z,100991.56
2023-02-17T10:07:32.942Z,100990.50
2023-02-17T10:10:07.462Z,100972.88
2023-02-17T10:12:38.861Z,100971.81
2023-02-17T10:15:13.636Z,100969.22
2023-02-17T10:17:56.273Z,100983.91
2023-02-17T10:20:29.005Z,100964.75
2023-02-17T10:23:02.720Z,100968.13
2023-02-17T10:25:49.171Z,100967.31
2023-02-17T10:28:53.096Z,100958.19
2023-02-17T10:31:35.546Z,100949.91
2023-02-17T10:34:12.256Z,100940.34
2023-02-17T10:36:56.818Z,100941.72
2023-02-17T10:39:31.821Z,100936.63
2023-02-17T10:41:59.205Z,100934.50
2023-02-17T10:44:26.065Z,100926.84
2023-02-17T10:46:54.184Z,100924.31
2023-02-17T10:49:30.509Z,100915.88
2023-02-17T10:52:02.833Z,100907.03
2023-02-17T10:54:34.902Z,100916.47
2023-02-17T10:57:03.999Z,100912.75
2023-02-17T10:59:34.315Z,100909.81
2023-02-17T11:02:15.333Z,100890.00
2023-02-17T11:04:47.746Z,100883.63
2023-02-17T11:07:16.525Z,100873.13
2023-02-17T11:09:56.890Z,100862.78
2023-02-17T11:12:34.652Z,100851.50
2023-02-17T11:15:03.903Z,100839.38
2023-02-17T11:17:36.106Z,100836.09
2023-02-17T11:20:23.012Z,100825.44
2023-02-17T11:23:03.379Z,100825.94
2023-02-17T11:25:32.671Z,100819.88
2023-02-17T11:28:01.622Z,100828.97
2023-02-17T11:30:30.512Z,100818.91
2023-02-17T11:32:57.162Z,100812.44
2023-02-17T11:35:36.061Z,100798.03
2023-02-17T11:38:10.717Z,100798.94
2023-02-17T11:40:38.742Z,100791.88
2023-02-17T11:43:06.079Z,100789.53
2023-02-17T11:46:18.086Z,100783.63
2023-02-17T11:49:06.444Z,100774.00
2023-02-17T11:51:54.945Z,100753.28
2023-02-17T11:54:24.995Z,100755.53
2023-02-17T11:57:28.293Z,100746.69
2023-02-17T12:00:05.766Z,100730.00
2023-02-17T12:02:54.999Z,100720.63
2023-02-17T12:05:51.712Z,100713.38
2023-02-17T12:08:30.429Z,100720.81
2023-02-17T12:11:17.118Z,100716.06
2023-02-17T12:14:04.498Z,100721.09
2023-02-17T12:16:54.309Z,100722.78
2023-02-17T12:19:32.538Z,100716.06
2023-02-17T12:22:03.499Z,100697.84
2023-02-17T12:24:49.356Z,100692.72
2023-02-17T12:27:57.964Z,100688.34
2023-02-17T12:30:47.096Z,100690.00
2023-02-17T12:33:13.684Z,100682.38
2023-02-17T12:35:51.182Z,100683.50
2023-02-17T12:38:20.323Z,100685.31
2023-02-17T12:40:51.431Z,100664.69
2023-02-17T12:43:50.999Z,100652.56
2023-02-17T12:46:22.106Z,100638.22
2023-02-17T12:49:13.219Z,100629.59
2023-02-17T12:51:51.266Z,100638.88
2023-02-17T12:54:22.759Z,100635.03
2023-02-17T12:57:14.197Z,100637.63
2023-02-17T12:59:50.498Z,100631.88
2023-02-17T13:02:27.871Z,100643.63
2023-02-17T13:04:57.715Z,100658.34
2023-02-17T13:07:48.255Z,100640.50
2023-02-17T13:10:38.497Z,100638.97
2023-02-17T13:13:27.038Z,100634.44
2023-02-17T13:16:12.091Z,100634.44
2023-02-17T13:18:41.718Z,100621.72
2023-02-17T13:21:25.109Z,100637.28
2023-02-17T13:24:04.940Z,100638.28
2023-02-17T13:26:34.085Z,100641.97
2023-02-17T13:29:19.724Z,100639.63
2023-02-17T13:31:50.430Z,100632.59
2023-02-17T13:34:29.446Z,100624.31
2023-02-17T13:36:56.639Z,100624.19
2023-02-17T13:39:26.359Z,100621.19
2023-02-17T13:41:54.360Z,100620.00
2023-02-17T13:44:43.705Z,100610.59
2023-02-17T13:47:17.531Z,100605.63
2023-02-17T13:49:52.898Z,100612.34
2023-02-17T13:52:28.070Z,100601.94
2023-02-17T13:55:04.177Z,100609.75
2023-02-17T13:57:36.869Z,100596.72
2023-02-17T14:00:09.348Z,100612.13
2023-02-17T14:02:48.930Z,100603.25
2023-02-17T14:05:27.385Z,100614.94
2023-02-17T14:07:58.664Z,100619.81
2023-02-17T14:10:26.916Z,100614.06
2023-02-17T14:12:54.860Z,100624.59
2023-02-17T14:15:24.312Z,100625.50
2023-02-17T14:17:51.463Z,100620.03
2023-02-17T14:20:44.590Z,100618.53
2023-02-17T14:23:13.365Z,100638.41
2023-02-17T14:25:42.763Z,100641.28
2023-02-17T14:28:26.649Z,100635.59
2023-02-17T14:30:53.988Z,100630.97
2023-02-17T14:33:23.812Z,100631.31
2023-02-17T14:36:03.966Z,100636.84
2023-02-17T14:38:37.507Z,100627.31
2023-02-17T14:41:07.017Z,100651.16
2023-02-17T14:43:33.932Z,100646.50
2023-02-17T14:46:00.617Z,100653.41
2023-02-17T14:48:28.029Z,100654.69
2023-02-17T14:50:57.108Z,100659.50
2023-02-17T14:53:33.245Z,100658.16
2023-02-17T14:56:25.561Z,100658.53
2023-02-17T14:58:55.574Z,100671.47
2023-02-17T15:01:24.341Z,100672.59
2023-02-17T15:03:51.256Z,100661.59
2023-02-17T15:06:20.149Z,100664.91
2023-02-17T15:08:49.408Z,100668.22
2023-02-17T15:11:30.576Z,100667.59
2023-02-17T15:13:57.240Z,100666.16
2023-02-17T15:16:24.008Z,100671.97
2023-02-17T15:18:51.154Z,100652.56
2023-02-17T15:21:26.302Z,100649.50
2023-02-17T15:23:53.747Z,100655.03
2023-02-17T15:26:20.647Z,100652.78
2023-02-17T15:28:47.730Z,100654.94
2023-02-17T15:31:17.816Z,100649.69
2023-02-17T15:33:45.101Z,100647.16
2023-02-17T15:36:18.289Z,100638.19
2023-02-17T15:38:45.015Z,100639.00
2023-02-17T15:41:18.172Z,100632.66
2023-02-17T15:43:46.677Z,100627.19
2023-02-17T15:46:18.789Z,100634.78
2023-02-17T15:48:51.148Z,100636.47
2023-02-17T15:51:23.357Z,100636.34
2023-02-17T15:53:50.451Z,100636.03
2023-02-17T15:56:22.649Z,100628.59
2023-02-17T15:58:50.503Z,100623.22
2023-02-17T16:01:31.134Z,100627.97
2023-02-17T16:03:58.537Z,100616.59
2023-02-17T16:06:26.366Z,100621.97
2023-02-17T16:08:53.181Z,100617.50
2023-02-17T16:11:20.219Z,100611.16
2023-02-17T16:13:47.625Z,100614.28
2023-02-17T16:16:23.326Z,100611.47
2023-02-17T16:18:50.473Z,100633.50
2023-02-17T16:21:17.970Z,100628.59
2023-02-17T16:23:44.663Z,100638.66
2023-02-17T16:26:31.308Z,100621.88
2023-02-17T16:28:59.927Z,100635.97
2023-02-17T16:31:27.000Z,100640.03
2023-02-17T16:33:59.657Z,100658.97
2023-02-17T16:36:26.566Z,100671.06
2023-02-17T16:38:53.209Z,100648.16
2023-02-17T16:41:20.728Z,100654.53
2023-02-17T16:43:47.506Z,100671.66
2023-02-17T16:46:28.037Z,100670.25
2023-02-17T16:48:54.663Z,100671.88
2023-02-17T16:51:21.439Z,100674.06
2023-02-17T16:53:48.092Z,100669.63
2023-02-17T16:56:18.759Z,100672.25
2023-02-17T16:58:45.704Z,100673.47
2023-02-17T17:01:13.134Z,100675.94
2023-02-17T17:03:43.022Z,100679.88
2023-02-17T17:06:25.869Z,100680.13
2023-02-17T17:08:53.121Z,100681.88
2023-02-17T17:11:22.953Z,100675.53
2023-02-17T17:13:50.408Z,100675.22
2023-02-17T17:16:21.621Z,100664.59
2023-02-17T17:18:48.500Z,100657.84
2023-02-17T17:21:17.115Z,100661.03
2023-02-17T17:23:43.836Z,100663.19
2023-02-17T17:26:31.076Z,100668.78
2023-02-17T17:28:57.829Z,100667.81
2023-02-17T17:31:25.147Z,100674.91
2023-02-17T17:33:52.415Z,100661.63
2023-02-17T17:36:25.393Z,100679.00
2023-02-17T17:38:53.401Z,100673.72
2023-02-17T17:41:20.346Z,100655.47
2023-02-17T17:43:51.655Z,100661.13
2023-02-17T17:46:28.506Z,100665.81
2023-02-17T17:48:56.139Z,100675.59
2023-02-17T17:51:23.371Z,100678.97
2023-02-17T17:53:50.392Z,100676.53
2023-02-17T17:56:19.653Z,100674.72
2023-02-17T17:58:46.568Z,100684.50
2023-02-17T18:01:13.546Z,100687.53
2023-02-17T18:03:41.597Z,100692.50
2023-02-17T18:06:13.136Z,100697.47
2023-02-17T18:08:39.844Z,100692.31
2023-02-17T18:11:08.054Z,100676.06
2023-02-17T18:13:35.140Z,100706.28
2023-02-17T18:16:02.918Z,100721.25
2023-02-17T18:18:29.811Z,100718.06
2023-02-17T18:20:56.580Z,100712.00
2023-02-17T18:23:23.520Z,100740.31
2023-02-17T18:25:50.138Z,100744.59
2023-02-17T18:28:16.798Z,100751.63
2023-02-17T18:30:43.730Z,100768.69
2023-02-17T18:33:10.479Z,100778.78
2023-02-17T18:35:38.866Z,100789.56
2023-02-17T18:38:05.644Z,100794.63
2023-02-17T18:40:32.730Z,100801.34
2023-02-17T18:42:59.894Z,100810.41
2023-02-17T18:45:26.867Z,100803.66
2023-02-17T18:47:53.615Z,100809.75
2023-02-17T18:50:20.350Z,100807.13
2023-02-17T18:52:47.087Z,100814.16
2023-02-17T18:55:14.146Z,100820.22
2023-02-17T18:57:40.835Z,100809.72
2023-02-17T19:00:10.832Z,100823.41
2023-02-17T19:02:38.015Z,100825.19
2023-02-17T19:05:05.739Z,100833.41
2023-02-17T19:07:33.097Z,100826.69
2023-02-17T19:09:59.946Z,100844.84
2023-02-17T19:12:26.837Z,100844.19
2023-02-17T19:14:56.678Z,100851.72
2023-02-17T19:17:24.742Z,100868.78
2023-02-17T19:19:51.958Z,100877.28
2023-02-17T19:22:19.163Z,100890.69
2023-02-17T19:24:45.849Z,100892.44
2023-02-17T19:27:12.672Z,100906.91
2023-02-17T19:29:40.753Z,100884.41
2023-02-17T19:32:07.465Z,100876.41
2023-02-17T19:34:34.271Z,100904.28
2023-02-17T19:37:00.995Z,100902.88
2023-02-17T19:39:27.676Z,100914.06
2023-02-17T19:41:54.371Z,100924.56
2023-02-17T19:44:20.980Z,100912.41
2023-02-17T19:46:47.805Z,100919.44
2023-02-17T19:49:14.566Z,100936.78
2023-02-17T19:51:41.351Z,100930.78
2023-02-17T19:54:07.997Z,100940.81
2023-02-17T19:56:36.472Z,100946.75
2023-02-17T19:59:03.525Z,100942.16
2023-02-17T20:01:32.567Z,100939.31
2023-02-17T20:04:01.671Z,100953.47
2023-02-17T20:06:33.291Z,100935.59
2023-02-17T20:09:05.706Z,100957.06
2023-02-17T20:11:32.727Z,100954.34
2023-02-17T20:14:00.551Z,100943.75
2023-02-17T20:16:28.266Z,100947.88
2023-02-17T20:18:57.739Z,100963.63
2023-02-17T20:21:26.091Z,100967.03
2023-02-17T20:23:56.113Z,100962.75
2023-02-17T20:26:28.680Z,100971.94
2023-02-17T20:28:56.183Z,100960.88
2023-02-17T20:31:23.542Z,100958.19
2023-02-17T20:33:53.506Z,100963.66
2023-02-17T20:36:22.245Z,100964.41
2023-02-17T20:38:52.282Z,100964.59
2023-02-17T20:41:21.251Z,100972.53
2023-02-17T20:43:48.298Z,100986.91
2023-02-17T20:46:25.306Z,100995.94
2023-02-17T20:48:52.555Z,100993.16
2023-02-17T20:51:19.889Z,100999.19
2023-02-17T20:53:46.630Z,101009.81
2023-02-17T20:56:15.911Z,101008.72
2023-02-17T20:58:42.559Z,101017.75
2023-02-17T21:01:09.594Z,101026.28
2023-02-17T21:03:36.763Z,101035.19
2023-02-17T21:06:05.790Z,101039.66
2023-02-17T21:08:32.891Z,101035.09
2023-02-17T21:10:59.638Z,101055.66
2023-02-17T21:13:26.971Z,101046.84
2023-02-17T21:15:54.625Z,101048.22
2023-02-17T21:18:21.360Z,101056.13
2023-02-17T21:20:48.015Z,101064.13
2023-02-17T21:23:15.191Z,101056.56
2023-02-17T21:25:45.281Z,101063.66
2023-02-17T21:28:12.123Z,101056.34
2023-02-17T21:30:38.814Z,101066.69
2023-02-17T21:33:06.246Z,101064.72
2023-02-17T21:35:32.907Z,101069.41
2023-02-17T21:37:59.737Z,101063.53
2023-02-17T21:40:26.572Z,101078.50
2023-02-17T21:43:12.111Z,101076.78
2023-02-17T21:45:39.276Z,101066.88
2023-02-17T21:48:07.666Z,101082.47
2023-02-17T21:50:34.613Z,101077.09
2023-02-17T21:53:01.304Z,101081.41
2023-02-17T21:55:27.924Z,101084.34
2023-02-17T21:57:54.644Z,101085.31
2023-02-17T22:00:21.347Z,101093.31
2023-02-17T22:02:49.126Z,101097.50
2023-02-17T22:05:15.785Z,101095.75
2023-02-17T22:07:42.505Z,101103.31
2023-02-17T22:10:09.450Z,101100.69
2023-02-17T22:12:37.525Z,101116.84
2023-02-17T22:15:05.950Z,101117.72
2023-02-17T22:17:35.003Z,101111.53
2023-02-17T22:20:01.943Z,101117.25
2023-02-17T22:22:28.678Z,101139.78
2023-02-17T22:24:58.098Z,101137.59
2023-02-17T22:27:24.946Z,101136.41
2023-02-17T22:29:51.720Z,101146.19
2023-02-17T22:32:18.491Z,101146.94
2023-02-17T22:34:45.243Z,101146.59
2023-02-17T22:37:11.995Z,101159.00
2023-02-17T22:39:38.676Z,101161.16
2023-02-17T22:42:06.891Z,101151.25
2023-02-17T22:44:33.755Z,101148.50
2023-02-17T22:47:00.358Z,101157.50
2023-02-17T22:49:28.081Z,101173.00
2023-02-17T22:51:54.693Z,101178.06
2023-02-17T22:54:21.407Z,101172.38
2023-02-17T22:56:48.084Z,101169.34
2023-02-17T22:59:14.807Z,101178.16
2023-02-17T23:01:41.435Z,101171.75
2023-02-17T23:04:13.119Z,101177.06
2023-02-17T23:06:40.052Z,101166.84
2023-02-17T23:09:10.182Z,101173.88
2023-02-17T23:11:53.855Z,101175.63
2023-02-17T23:14:37.166Z,101167.78
2023-02-17T23:17:06.572Z,101186.00
2023-02-17T23:19:33.567Z,101175.84
2023-02-17T23:22:04.137Z,101190.31
2023-02-17T23:24:30.876Z,101189.97
2023-02-17T23:26:58.391Z,101183.34
2023-02-17T23:29:25.063Z,101190.81
2023-02-17T23:31:51.957Z,101191.88
2023-02-17T23:34:19.035Z,101195.00
2023-02-17T23:36:46.738Z,101198.44
2023-02-17T23:39:14.832Z,101195.00
2023-02-17T23:41:41.859Z,101208.16
2023-02-17T23:44:10.677Z,101202.75
2023-02-17T23:46:38.279Z,101186.75
2023-02-17T23:49:05.063Z,101186.28
2023-02-17T23:51:32.137Z,101182.69
2023-02-17T23:53:58.836Z,101202.00
2023-02-17T23:56:30.369Z,101182.38
2023-02-17T23:58:57.245Z,101188.72
